createdAt,value
2023-04-13T00:03:33.411Z,3.83
2023-04-13T00:08:36.940Z,3.88
2023-04-13T00:13:43.117Z,4.15
2023-04-13T00:18:46.570Z,4.32
2023-04-13T00:23:49.832Z,4.90
2023-04-13T00:28:54.503Z,3.33
2023-04-13T00:33:57.946Z,3.15
2023-04-13T00:39:04.570Z,3.97
2023-04-13T00:44:10.439Z,3.40
2023-04-13T00:49:13.817Z,4.68
2023-04-13T00:54:18.193Z,3.67
2023-04-13T00:59:24.795Z,3.22
2023-04-13T01:04:31.105Z,5.28
2023-04-13T01:09:41.877Z,3.97
2023-04-13T01:14:56.989Z,3.15
2023-04-13T01:20:02.311Z,4.50
2023-04-13T01:25:28.542Z,4.22
2023-04-13T01:30:35.901Z,5.25
2023-04-13T01:35:40.132Z,2.85
2023-04-13T01:40:46.103Z,2.80
2023-04-13T01:46:00.995Z,2.15
2023-04-13T01:51:13.550Z,2.25
2023-04-13T01:56:26.728Z,2.50
2023-04-13T02:01:36.712Z,2.53
2023-04-13T02:06:41.007Z,0.88
2023-04-13T02:11:45.314Z,1.70
2023-04-13T02:16:50.270Z,0.93
2023-04-13T02:21:53.625Z,1.10
2023-04-13T02:26:58.172Z,2.30
2023-04-13T02:32:02.840Z,1.38
2023-04-13T02:37:09.420Z,1.02
2023-04-13T02:42:12.791Z,1.10
2023-04-13T02:47:17.523Z,1.40
2023-04-13T02:52:21.760Z,1.55
2023-04-13T02:57:34.416Z,1.83
2023-04-13T03:02:42.392Z,1.95
2023-04-13T03:07:46.101Z,2.08
2023-04-13T03:12:50.585Z,2.50
2023-04-13T03:17:55.727Z,2.03
2023-04-13T03:23:01.945Z,2.10
2023-04-13T03:28:09.371Z,1.90
2023-04-13T03:33:19.448Z,2.85
2023-04-13T03:38:23.208Z,1.67
2023-04-13T03:43:28.596Z,2.38
2023-04-13T03:48:44.795Z,3.00
2023-04-13T03:53:52.864Z,2.53
2023-04-13T03:58:59.897Z,2.85
2023-04-13T04:04:06.030Z,2.90
2023-04-13T04:09:09.526Z,2.10
2023-04-13T04:14:20.610Z,2.22
2023-04-13T04:19:35.441Z,2.40
2023-04-13T04:24:38.859Z,2.13
2023-04-13T04:29:49.125Z,1.48
2023-04-13T04:35:04.072Z,2.00
2023-04-13T04:40:12.710Z,1.30
2023-04-13T04:45:17.622Z,1.27
2023-04-13T04:50:26.382Z,0.95
2023-04-13T04:55:37.665Z,1.30
2023-04-13T05:00:41.497Z,0.80
2023-04-13T05:05:49.750Z,0.88
2023-04-13T05:11:01.582Z,1.10
2023-04-13T05:16:06.018Z,1.73
2023-04-13T05:21:11.178Z,0.93
2023-04-13T05:26:15.028Z,0.73
2023-04-13T05:31:18.598Z,0.75
2023-04-13T05:36:23.357Z,1.08
2023-04-13T05:41:27.575Z,1.00
2023-04-13T05:46:31.206Z,0.82
2023-04-13T05:51:40.967Z,0.50
2023-04-13T05:56:44.353Z,0.63
2023-04-13T06:01:51.565Z,0.73
2023-04-13T06:06:57.388Z,1.08
2023-04-13T06:12:00.698Z,0.40
2023-04-13T06:17:04.002Z,0.45
2023-04-13T06:22:08.681Z,1.27
2023-04-13T06:27:15.448Z,0.50
2023-04-13T06:32:21.971Z,0.52
2023-04-13T06:37:27.267Z,0.98
2023-04-13T06:42:31.878Z,0.40
2023-04-13T06:47:41.058Z,0.57
2023-04-13T06:52:49.002Z,0.40
2023-04-13T06:57:52.523Z,0.55
2023-04-13T07:02:56.363Z,1.00
2023-04-13T07:08:01.433Z,0.45
2023-04-13T07:13:05.941Z,0.55
2023-04-13T07:18:09.850Z,0.93
2023-04-13T07:23:14.661Z,1.00
2023-04-13T07:28:17.990Z,0.40
2023-04-13T07:33:22.677Z,0.50
2023-04-13T07:38:29.160Z,0.73
2023-04-13T07:43:32.575Z,0.70
2023-04-13T07:48:38.316Z,0.63
2023-04-13T07:53:53.715Z,0.52
2023-04-13T07:58:58.347Z,0.75
2023-04-13T08:04:02.639Z,0.50
2023-04-13T08:09:09.581Z,0.65
2023-04-13T08:14:13.028Z,0.43
2023-04-13T08:19:17.443Z,0.45
2023-04-13T08:24:26.868Z,0.40
2023-04-13T08:29:30.176Z,0.90
2023-04-13T08:34:33.445Z,0.40
2023-04-13T08:39:38.576Z,0.50
2023-04-13T08:44:43.097Z,0.40
2023-04-13T08:49:49.891Z,0.40
2023-04-13T08:55:00.988Z,0.80
2023-04-13T09:00:13.518Z,0.93
2023-04-13T09:05:21.059Z,0.77
2023-04-13T09:10:30.401Z,1.98
2023-04-13T09:15:33.851Z,0.60
2023-04-13T09:21:06.608Z,0.55
2023-04-13T09:26:11.199Z,0.52
2023-04-13T09:31:15.796Z,0.50
2023-04-13T09:36:20.705Z,0.50
2023-04-13T09:41:33.209Z,1.85
2023-04-13T09:46:36.557Z,0.50
2023-04-13T09:51:41.280Z,0.40
2023-04-13T09:56:48.286Z,0.70
2023-04-13T10:01:52.641Z,0.82
2023-04-13T10:06:56.017Z,0.45
2023-04-13T10:12:01.643Z,0.75
2023-04-13T10:17:33.053Z,0.75
2023-04-13T10:22:36.309Z,0.60
2023-04-13T10:27:41.385Z,0.98
2023-04-13T10:32:45.140Z,0.70
2023-04-13T10:37:58.392Z,0.77
2023-04-13T10:43:03.096Z,0.40
2023-04-13T10:48:07.664Z,0.88
2023-04-13T10:53:11.120Z,0.30
2023-04-13T10:58:18.476Z,0.55
2023-04-13T11:03:22.252Z,0.50
2023-04-13T11:08:26.708Z,0.70
2023-04-13T11:13:32.876Z,1.25
2023-04-13T11:18:36.180Z,1.40
2023-04-13T11:23:39.609Z,0.73
2023-04-13T11:28:46.320Z,0.52
2023-04-13T11:33:51.568Z,1.35
2023-04-13T11:38:55.458Z,0.68
2023-04-13T11:44:02.604Z,1.40
2023-04-13T11:49:06.571Z,0.73
2023-04-13T11:54:10.710Z,0.85
2023-04-13T11:59:15.490Z,0.90
2023-04-13T12:04:19.017Z,0.60
2023-04-13T12:09:31.049Z,0.80
2023-04-13T12:15:08.559Z,0.50
2023-04-13T12:20:17.455Z,0.55
2023-04-13T12:25:23.967Z,0.98
2023-04-13T12:30:29.341Z,0.55
2023-04-13T12:35:32.508Z,0.95
2023-04-13T12:40:37.559Z,1.13
2023-04-13T12:45:42.165Z,0.75
2023-04-13T12:50:45.406Z,0.50
2023-04-13T12:55:48.669Z,1.08
2023-04-13T13:00:53.665Z,1.02
2023-04-13T13:05:57.427Z,0.40
2023-04-13T13:11:00.852Z,1.30
2023-04-13T13:16:06.272Z,0.40
2023-04-13T13:21:09.508Z,0.30
2023-04-13T13:31:21.065Z,0.47
2023-04-13T13:36:24.351Z,1.23
2023-04-13T13:41:27.678Z,1.13
2023-04-13T13:46:32.312Z,0.50
2023-04-13T13:51:39.845Z,0.52
2023-04-13T13:56:45.486Z,0.82
2023-04-13T14:01:50.147Z,0.98
2023-04-13T14:06:53.398Z,1.38
2023-04-13T14:11:57.961Z,0.50
2023-04-13T14:17:02.592Z,0.50
2023-04-13T14:22:06.090Z,1.15
2023-04-13T14:27:09.954Z,0.60
2023-04-13T14:32:14.645Z,0.47
2023-04-13T14:37:19.268Z,0.75
2023-04-13T14:42:24.458Z,1.60
2023-04-13T14:47:29.263Z,2.30
2023-04-13T14:52:32.819Z,2.47
2023-04-13T14:57:36.061Z,1.27
2023-04-13T15:02:40.808Z,1.33
2023-04-13T15:07:45.602Z,1.98
2023-04-13T15:12:49.238Z,2.08
2023-04-13T15:17:53.903Z,1.75
2023-04-13T15:22:58.359Z,1.40
2023-04-13T15:28:01.639Z,0.63
2023-04-13T15:33:06.459Z,2.20
2023-04-13T15:38:10.182Z,1.63
2023-04-13T15:43:13.643Z,0.80
2023-04-13T15:48:19.718Z,6.80
2023-04-13T15:53:24.117Z,6.88
2023-04-13T15:58:28.733Z,4.03
2023-04-13T16:03:35.497Z,4.55
2023-04-13T16:08:38.965Z,3.13
2023-04-13T16:13:49.441Z,2.63
2023-04-13T16:18:54.811Z,1.50
2023-04-13T16:23:58.109Z,2.05
2023-04-13T16:29:01.802Z,0.82
2023-04-13T16:34:24.475Z,1.27
2023-04-13T16:39:29.215Z,1.02
2023-04-13T16:44:33.354Z,1.35
2023-04-13T16:49:38.200Z,1.33
2023-04-13T16:54:44.370Z,2.42
2023-04-13T16:59:48.391Z,2.15
2023-04-13T17:04:54.867Z,2.47
2023-04-13T17:09:58.403Z,3.42
2023-04-13T17:15:02.323Z,3.60
2023-04-13T17:20:10.391Z,3.75
2023-04-13T17:25:13.728Z,1.73
2023-04-13T17:30:17.158Z,2.70
2023-04-13T17:35:22.526Z,2.20
2023-04-13T17:40:26.290Z,1.55
2023-04-13T17:45:29.595Z,2.35
2023-04-13T17:50:36.126Z,1.10
2023-04-13T17:55:40.110Z,1.90
2023-04-13T18:00:45.313Z,1.10
2023-04-13T18:05:51.765Z,1.27
2023-04-13T18:10:56.628Z,1.10
2023-04-13T18:16:01.905Z,1.13
2023-04-13T18:21:08.288Z,1.95
2023-04-13T18:26:12.736Z,2.13
2023-04-13T18:31:17.492Z,1.73
2023-04-13T18:36:25.148Z,1.70
2023-04-13T18:41:31.927Z,1.13
2023-04-13T18:46:36.901Z,1.55
2023-04-13T18:51:45.848Z,1.55
2023-04-13T18:56:50.316Z,1.27
2023-04-13T19:01:54.910Z,1.50
2023-04-13T19:07:00.825Z,0.80
2023-04-13T19:12:06.391Z,0.80
2023-04-13T19:17:14.590Z,1.77
2023-04-13T19:22:21.353Z,1.20
2023-04-13T19:27:27.300Z,1.73
2023-04-13T19:32:35.181Z,1.30
2023-04-13T19:37:42.301Z,1.90
2023-04-13T19:42:48.599Z,1.40
2023-04-13T19:47:54.659Z,1.17
2023-04-13T19:53:00.390Z,1.48
2023-04-13T19:58:06.592Z,1.90
2023-04-13T20:03:10.788Z,1.15
2023-04-13T20:08:16.772Z,1.45
2023-04-13T20:13:21.137Z,1.23
2023-04-13T20:18:25.775Z,1.00
2023-04-13T20:23:32.209Z,1.80
2023-04-13T20:28:36.730Z,0.95
2023-04-13T20:33:41.139Z,1.45
2023-04-13T20:38:46.387Z,1.20
2023-04-13T20:43:51.754Z,1.77
2023-04-13T20:48:55.819Z,1.70
2023-04-13T20:54:01.827Z,1.13
2023-04-13T20:59:05.335Z,2.17
2023-04-13T21:04:08.708Z,2.40
2023-04-13T21:09:13.639Z,1.45
2023-04-13T21:14:21.251Z,1.13
2023-04-13T21:19:25.316Z,2.10
2023-04-13T21:24:29.969Z,1.40
2023-04-13T21:29:33.271Z,2.00
2023-04-13T21:34:36.452Z,1.95
2023-04-13T21:39:42.592Z,2.03
2023-04-13T21:44:45.810Z,1.33
2023-04-13T21:49:49.261Z,2.05
2023-04-13T21:54:54.208Z,1.70
2023-04-13T21:59:57.427Z,2.08
2023-04-13T22:05:00.794Z,1.30
2023-04-13T22:10:05.924Z,1.40
2023-04-13T22:15:09.797Z,3.05
2023-04-13T22:20:13.485Z,2.10
2023-04-13T22:25:18.301Z,2.67
2023-04-13T22:30:21.667Z,2.20
2023-04-13T22:35:24.890Z,1.50
2023-04-13T22:40:29.427Z,1.92
2023-04-13T22:45:32.726Z,1.52
2023-04-13T22:50:38.125Z,1.65
2023-04-13T22:55:42.692Z,1.95
2023-04-13T23:00:46.333Z,1.70
2023-04-13T23:05:49.743Z,2.45
2023-04-13T23:10:54.358Z,1.70
2023-04-13T23:16:01.403Z,1.48
2023-04-13T23:21:10.998Z,1.60
2023-04-13T23:26:15.714Z,1.52
2023-04-13T23:31:18.914Z,1.40
2023-04-13T23:36:22.205Z,1.58
2023-04-13T23:41:26.735Z,1.55
2023-04-13T23:46:31.446Z,1.30
2023-04-13T23:51:34.607Z,1.85
2023-04-13T23:56:39.521Z,1.27
